Terminal Aerodrome Forecast
Issued by NWS Duluth, MN

Home | Current Version | Previous Version | Text Only | Print | Product List | Glossary On
Versions: 1 2 3 4 5 6 7 8 9 10 11 12 13 14 15 16 17 18
000
FTUS43 KDLH 272339
TAFINL
TAF
KINL 272339Z 2800/2824 20005KT P6SM -SHRA VCTS OVC050CB
      TEMPO 2800/2803 5SM SHRA BR SCT015 OVC030
     FM280300 14003KT 6SM BR VCSH SCT015 BKN040
     FM280800 VRB02KT 3SM BR SCT010
      TEMPO 2809/2812 1 1/2SM BR BKN010
     FM281400 15007KT P6SM SCT020
     FM281900 15007KT P6SM BKN040=

USA.gov is the U.S. government's official web portal to all federal, state and local government web resources and services.